createdAt,value
2022-10-07T00:01:06.282Z,101186.69
2022-10-07T00:03:34.748Z,101182.00
2022-10-07T00:06:19.399Z,101186.88
2022-10-07T00:08:53.080Z,101184.97
2022-10-07T00:11:26.056Z,101190.72
2022-10-07T00:13:59.453Z,101187.84
2022-10-07T00:16:34.854Z,101195.66
2022-10-07T00:19:07.544Z,101196.31
2022-10-07T00:21:37.525Z,101182.72
2022-10-07T00:24:07.370Z,101186.13
2022-10-07T00:26:36.779Z,101191.47
2022-10-07T00:29:07.000Z,101186.28
2022-10-07T00:31:38.227Z,101186.28
2022-10-07T00:34:05.954Z,101187.00
2022-10-07T00:36:37.466Z,101180.84
2022-10-07T00:39:14.142Z,101188.84
2022-10-07T00:41:51.856Z,101185.03
2022-10-07T00:44:41.798Z,101184.03
2022-10-07T00:47:29.708Z,101177.72
2022-10-07T00:50:05.694Z,101173.59
2022-10-07T00:52:42.048Z,101171.78
2022-10-07T00:55:17.520Z,101171.03
2022-10-07T00:57:47.955Z,101172.88
2022-10-07T01:00:15.770Z,101168.31
2022-10-07T01:02:44.383Z,101164.84
2022-10-07T01:05:14.129Z,101161.66
2022-10-07T01:07:47.944Z,101164.13
2022-10-07T01:10:19.909Z,101158.59
2022-10-07T01:13:19.586Z,101158.69
2022-10-07T01:16:17.382Z,101151.91
2022-10-07T01:19:59.694Z,101145.25
2022-10-07T01:22:49.924Z,101155.91
2022-10-07T01:25:51.140Z,101144.06
2022-10-07T01:28:47.622Z,101141.25
2022-10-07T01:31:19.387Z,101148.16
2022-10-07T01:33:48.287Z,101137.47
2022-10-07T01:36:18.112Z,101146.81
2022-10-07T01:38:56.686Z,101149.63
2022-10-07T01:41:24.300Z,101143.06
2022-10-07T01:43:54.996Z,101146.53
2022-10-07T01:46:27.124Z,101141.41
2022-10-07T01:48:57.818Z,101140.03
2022-10-07T01:51:30.337Z,101140.50
2022-10-07T01:54:32.854Z,101135.97
2022-10-07T01:57:53.830Z,101127.72
2022-10-07T02:00:21.261Z,101126.94
2022-10-07T02:03:29.271Z,101120.59
2022-10-07T02:06:24.527Z,101116.16
2022-10-07T02:08:55.880Z,101121.78
2022-10-07T02:11:37.667Z,101117.78
2022-10-07T02:14:14.892Z,101114.81
2022-10-07T02:16:48.226Z,101109.38
2022-10-07T02:19:47.616Z,101107.56
2022-10-07T02:22:17.549Z,101108.53
2022-10-07T02:24:47.705Z,101101.41
2022-10-07T02:27:23.221Z,101101.31
2022-10-07T02:30:02.097Z,101100.13
2022-10-07T02:32:31.993Z,101096.88
2022-10-07T02:35:07.084Z,101092.97
2022-10-07T02:37:39.899Z,101096.06
2022-10-07T02:40:12.110Z,101097.84
2022-10-07T02:43:53.176Z,101094.63
2022-10-07T02:47:03.652Z,101090.25
2022-10-07T02:49:38.377Z,101083.75
2022-10-07T02:52:12.292Z,101082.91
2022-10-07T02:54:52.337Z,101078.13
2022-10-07T02:57:21.790Z,101078.66
2022-10-07T02:59:51.468Z,101075.06
2022-10-07T03:02:51.340Z,101074.97
2022-10-07T03:05:21.371Z,101073.97
2022-10-07T03:07:56.350Z,101069.97
2022-10-07T03:10:24.137Z,101069.00
2022-10-07T03:12:51.449Z,101069.81
2022-10-07T03:15:20.111Z,101071.63
2022-10-07T03:17:47.943Z,101066.56
2022-10-07T03:20:15.523Z,101072.00
2022-10-07T03:22:44.759Z,101070.88
2022-10-07T03:25:15.394Z,101072.81
2022-10-07T03:27:43.571Z,101070.09
2022-10-07T03:30:12.098Z,101067.38
2022-10-07T03:32:44.128Z,101069.06
2022-10-07T03:35:11.369Z,101068.44
2022-10-07T03:37:39.121Z,101070.53
2022-10-07T03:40:09.996Z,101066.94
2022-10-07T03:42:38.105Z,101061.31
2022-10-07T03:45:06.989Z,101062.66
2022-10-07T03:47:34.217Z,101065.28
2022-10-07T03:50:01.700Z,101062.72
2022-10-07T03:52:31.365Z,101064.56
2022-10-07T03:54:58.565Z,101066.66
2022-10-07T03:57:44.861Z,101059.13
2022-10-07T04:00:13.403Z,101062.41
2022-10-07T04:02:49.884Z,101063.13
2022-10-07T04:05:21.443Z,101056.88
2022-10-07T04:07:50.501Z,101060.41
2022-10-07T04:10:20.322Z,101064.75
2022-10-07T04:12:49.722Z,101068.91
2022-10-07T04:15:17.805Z,101061.84
2022-10-07T04:17:48.125Z,101063.47
2022-10-07T04:20:18.305Z,101067.75
2022-10-07T04:22:45.978Z,101064.00
2022-10-07T04:25:32.293Z,101067.38
2022-10-07T04:28:08.425Z,101061.13
2022-10-07T04:30:40.538Z,101068.53
2022-10-07T04:33:09.829Z,101062.66
2022-10-07T04:35:39.588Z,101062.03
2022-10-07T04:38:13.173Z,101059.13
2022-10-07T04:40:46.644Z,101058.22
2022-10-07T04:43:19.356Z,101047.91
2022-10-07T04:46:02.237Z,101047.72
2022-10-07T04:48:29.792Z,101056.88
2022-10-07T04:51:07.740Z,101049.69
2022-10-07T04:53:37.566Z,101045.16
2022-10-07T04:56:06.412Z,101055.00
2022-10-07T04:58:33.956Z,101050.31
2022-10-07T05:01:09.224Z,101052.38
2022-10-07T05:03:40.452Z,101051.28
2022-10-07T05:06:09.475Z,101054.09
2022-10-07T05:08:42.384Z,101050.75
2022-10-07T05:11:11.020Z,101055.09
2022-10-07T05:13:46.346Z,101053.81
2022-10-07T05:16:13.966Z,101050.91
2022-10-07T05:18:41.185Z,101051.28
2022-10-07T05:21:12.057Z,101062.16
2022-10-07T05:23:43.517Z,101057.44
2022-10-07T05:26:15.231Z,101062.13
2022-10-07T05:28:48.640Z,101054.63
2022-10-07T05:31:20.281Z,101049.03
2022-10-07T05:33:52.431Z,101055.09
2022-10-07T05:36:24.942Z,101055.09
2022-10-07T05:38:57.930Z,101062.16
2022-10-07T05:41:30.764Z,101056.47
2022-10-07T05:44:01.430Z,101060.03
2022-10-07T05:46:28.813Z,101056.31
2022-10-07T05:48:58.676Z,101061.66
2022-10-07T05:51:31.510Z,101052.78
2022-10-07T05:54:00.342Z,101045.72
2022-10-07T05:56:36.805Z,101054.03
2022-10-07T05:59:04.650Z,101058.28
2022-10-07T06:01:32.592Z,101061.13
2022-10-07T06:04:07.958Z,101062.84
2022-10-07T06:06:38.559Z,101066.03
2022-10-07T06:09:27.690Z,101057.88
2022-10-07T06:12:14.920Z,101063.47
2022-10-07T06:14:42.583Z,101060.19
2022-10-07T06:17:10.411Z,101060.94
2022-10-07T06:19:38.786Z,101058.22
2022-10-07T06:22:06.569Z,101058.56
2022-10-07T06:24:36.627Z,101062.56
2022-10-07T06:27:04.112Z,101060.47
2022-10-07T06:29:32.107Z,101054.91
2022-10-07T06:32:00.353Z,101056.25
2022-10-07T06:34:27.926Z,101057.72
2022-10-07T06:36:56.162Z,101055.53
2022-10-07T06:39:23.855Z,101051.53
2022-10-07T06:41:54.449Z,101052.22
2022-10-07T06:44:44.785Z,101062.56
2022-10-07T06:47:16.545Z,101063.72
2022-10-07T06:49:45.638Z,101054.44
2022-10-07T06:52:13.658Z,101054.94
2022-10-07T06:54:42.845Z,101048.22
2022-10-07T06:57:40.435Z,101051.16
2022-10-07T07:00:01.050Z,101046.31
2022-10-07T07:02:30.480Z,101041.59
2022-10-07T07:04:58.806Z,101044.78
2022-10-07T07:07:27.347Z,101043.38
2022-10-07T07:09:55.015Z,101040.38
2022-10-07T07:12:25.257Z,101047.09
2022-10-07T07:14:53.876Z,101051.38
2022-10-07T07:17:22.037Z,101051.84
2022-10-07T07:19:49.337Z,101047.03
2022-10-07T07:22:17.717Z,101058.06
2022-10-07T07:24:45.602Z,101053.22
2022-10-07T07:27:15.086Z,101051.19
2022-10-07T07:29:43.691Z,101048.84
2022-10-07T07:32:12.082Z,101059.06
2022-10-07T07:34:42.501Z,101055.81
2022-10-07T07:37:14.162Z,101051.66
2022-10-07T07:39:46.857Z,101044.84
2022-10-07T07:42:16.857Z,101059.59
2022-10-07T07:44:44.361Z,101055.56
2022-10-07T07:47:18.472Z,101054.88
2022-10-07T07:49:49.485Z,101049.44
2022-10-07T07:52:29.548Z,101050.94
2022-10-07T07:54:59.134Z,101045.41
2022-10-07T07:57:28.288Z,101047.25
2022-10-07T07:59:58.232Z,101048.16
2022-10-07T08:02:26.678Z,101048.38
2022-10-07T08:04:54.578Z,101045.97
2022-10-07T08:07:22.986Z,101049.88
2022-10-07T08:09:51.006Z,101041.16
2022-10-07T08:12:21.035Z,101047.94
2022-10-07T08:14:49.248Z,101040.25
2022-10-07T08:17:17.514Z,101041.19
2022-10-07T08:19:45.050Z,101038.06
2022-10-07T08:22:17.464Z,101036.78
2022-10-07T08:24:47.064Z,101042.94
2022-10-07T08:27:15.781Z,101031.25
2022-10-07T08:29:42.960Z,101034.13
2022-10-07T08:32:11.228Z,101026.81
2022-10-07T08:34:39.721Z,101028.09
2022-10-07T08:37:06.993Z,101019.41
2022-10-07T08:39:34.267Z,101015.09
2022-10-07T08:42:42.508Z,101011.41
2022-10-07T08:45:27.492Z,101007.28
2022-10-07T08:47:57.483Z,101008.22
2022-10-07T08:51:12.569Z,101001.69
2022-10-07T08:53:40.191Z,101000.13
2022-10-07T08:56:13.040Z,100997.25
2022-10-07T08:59:04.291Z,100995.66
2022-10-07T09:02:06.140Z,100991.97
2022-10-07T09:05:08.584Z,100994.19
2022-10-07T09:07:50.160Z,100995.97
2022-10-07T09:10:34.359Z,100990.81
2022-10-07T09:13:14.181Z,100986.03
2022-10-07T09:16:00.577Z,100991.94
2022-10-07T09:18:50.862Z,100987.34
2022-10-07T09:21:48.238Z,100981.22
2022-10-07T09:24:30.389Z,100980.09
2022-10-07T09:27:23.031Z,100974.25
2022-10-07T09:29:51.411Z,100978.09
2022-10-07T09:32:19.983Z,100964.09
2022-10-07T09:34:47.840Z,100963.88
2022-10-07T09:37:34.936Z,100964.56
2022-10-07T09:41:01.258Z,100959.44
2022-10-07T09:43:31.876Z,100946.78
2022-10-07T09:46:00.841Z,100944.34
2022-10-07T09:48:33.714Z,100937.66
2022-10-07T09:51:21.661Z,100947.75
2022-10-07T09:54:05.179Z,100943.50
2022-10-07T09:56:46.458Z,100937.63
2022-10-07T09:59:29.718Z,100932.81
2022-10-07T10:02:15.808Z,100941.44
2022-10-07T10:04:57.368Z,100924.78
2022-10-07T10:07:37.427Z,100918.94
2022-10-07T10:10:22.457Z,100915.72
2022-10-07T10:12:53.611Z,100919.97
2022-10-07T10:15:35.872Z,100904.81
2022-10-07T10:18:33.911Z,100908.50
2022-10-07T10:21:29.842Z,100899.94
2022-10-07T10:24:01.920Z,100900.88
2022-10-07T10:27:07.134Z,100894.53
2022-10-07T10:30:05.664Z,100900.63
2022-10-07T10:33:25.753Z,100895.66
2022-10-07T10:36:12.714Z,100880.44
2022-10-07T10:39:04.541Z,100881.56
2022-10-07T10:41:52.211Z,100875.31
2022-10-07T10:44:42.576Z,100874.94
2022-10-07T10:47:25.534Z,100871.22
2022-10-07T10:50:10.816Z,100860.47
2022-10-07T10:53:08.337Z,100854.63
2022-10-07T10:56:02.399Z,100843.72
2022-10-07T10:59:21.448Z,100839.03
2022-10-07T11:02:29.463Z,100837.88
2022-10-07T11:05:34.241Z,100836.88
2022-10-07T11:08:27.089Z,100825.09
2022-10-07T11:11:03.028Z,100831.25
2022-10-07T11:13:54.368Z,100826.84
2022-10-07T11:16:38.705Z,100815.09
2022-10-07T11:19:35.924Z,100810.34
2022-10-07T11:22:04.249Z,100804.31
2022-10-07T11:24:57.009Z,100792.06
2022-10-07T11:27:30.067Z,100796.38
2022-10-07T11:30:11.153Z,100797.03
2022-10-07T11:32:56.736Z,100783.84
2022-10-07T11:35:33.220Z,100786.09
2022-10-07T11:38:15.181Z,100783.41
2022-10-07T11:41:02.546Z,100778.38
2022-10-07T11:43:53.192Z,100760.78
2022-10-07T11:46:33.054Z,100765.72
2022-10-07T11:49:32.233Z,100762.22
2022-10-07T11:52:34.725Z,100755.47
2022-10-07T11:55:12.089Z,100746.84
2022-10-07T11:57:43.773Z,100741.41
2022-10-07T12:00:41.815Z,100733.25
2022-10-07T12:03:19.458Z,100736.31
2022-10-07T12:05:49.925Z,100727.78
2022-10-07T12:08:41.617Z,100721.84
2022-10-07T12:11:12.395Z,100717.50
2022-10-07T12:13:51.098Z,100707.59
2022-10-07T12:16:54.232Z,100709.81
2022-10-07T12:19:24.019Z,100709.69
2022-10-07T12:21:59.480Z,100715.06
2022-10-07T12:24:28.040Z,100702.97
2022-10-07T12:26:59.346Z,100701.44
2022-10-07T12:29:44.547Z,100692.53
2022-10-07T12:32:52.065Z,100682.78
2022-10-07T12:35:53.019Z,100673.91
2022-10-07T12:38:28.054Z,100674.81
2022-10-07T12:41:11.512Z,100662.28
2022-10-07T12:44:00.506Z,100658.84
2022-10-07T12:46:49.184Z,100649.25
2022-10-07T12:49:48.902Z,100649.22
2022-10-07T12:52:44.355Z,100644.69
2022-10-07T12:55:40.421Z,100641.19
2022-10-07T12:59:28.525Z,100640.31
2022-10-07T13:02:24.192Z,100642.09
2022-10-07T13:05:39.255Z,100642.00
2022-10-07T13:08:49.335Z,100633.16
2022-10-07T13:12:03.060Z,100634.16
2022-10-07T13:14:50.098Z,100627.09
2022-10-07T13:18:26.838Z,100623.59
2022-10-07T13:21:22.842Z,100612.94
2022-10-07T13:23:55.768Z,100610.19
2022-10-07T13:26:26.714Z,100606.63
2022-10-07T13:29:00.345Z,100602.25
2022-10-07T13:31:34.529Z,100592.44
2022-10-07T13:34:17.968Z,100592.44
2022-10-07T13:36:45.212Z,100592.44
2022-10-07T13:39:23.140Z,100584.41
2022-10-07T13:41:57.839Z,100584.41
2022-10-07T13:44:31.747Z,100574.63
2022-10-07T13:47:03.080Z,100571.97
2022-10-07T13:49:43.440Z,100571.03
2022-10-07T13:52:33.904Z,100564.81
2022-10-07T13:55:01.280Z,100559.44
2022-10-07T13:57:31.385Z,100549.63
2022-10-07T14:00:00.059Z,100548.72
2022-10-07T14:02:28.293Z,100545.16
2022-10-07T14:05:14.383Z,100544.22
2022-10-07T14:07:42.524Z,100543.31
2022-10-07T14:10:11.089Z,100541.50
2022-10-07T14:12:49.531Z,100530.72
2022-10-07T14:15:31.427Z,100529.94
2022-10-07T14:18:08.998Z,100523.69
2022-10-07T14:21:08.808Z,100529.09
2022-10-07T14:23:37.854Z,100523.72
2022-10-07T14:26:18.955Z,100521.00
2022-10-07T14:28:47.237Z,100507.63
2022-10-07T14:31:39.976Z,100509.28
2022-10-07T14:34:35.262Z,100502.06
2022-10-07T14:37:28.421Z,100498.63
2022-10-07T14:39:56.826Z,100493.38
2022-10-07T14:42:36.189Z,100487.97
2022-10-07T14:45:09.723Z,100487.94
2022-10-07T14:47:41.325Z,100475.31
2022-10-07T14:50:12.078Z,100480.31
2022-10-07T14:52:49.047Z,100480.44
2022-10-07T14:55:29.483Z,100474.63
2022-10-07T14:57:56.805Z,100472.47
2022-10-07T15:00:29.408Z,100460.19
2022-10-07T15:02:57.734Z,100463.16
2022-10-07T15:05:26.383Z,100457.25
2022-10-07T15:07:53.798Z,100451.19
2022-10-07T15:10:26.205Z,100452.47
2022-10-07T15:12:55.999Z,100456.47
2022-10-07T15:15:23.203Z,100451.72
2022-10-07T15:17:50.503Z,100450.53
2022-10-07T15:20:18.555Z,100453.69
2022-10-07T15:22:46.159Z,100449.81
2022-10-07T15:25:18.007Z,100451.47
2022-10-07T15:27:45.257Z,100456.88
2022-10-07T15:30:13.458Z,100439.19
2022-10-07T15:32:40.670Z,100446.00
2022-10-07T15:35:08.612Z,100442.28
2022-10-07T15:37:35.946Z,100439.69
2022-10-07T15:40:06.561Z,100439.97
2022-10-07T15:42:33.834Z,100439.38
2022-10-07T15:45:01.098Z,100441.50
2022-10-07T15:47:28.298Z,100439.56
2022-10-07T15:49:55.564Z,100446.25
2022-10-07T15:52:22.869Z,100439.47
2022-10-07T15:54:50.997Z,100438.97
2022-10-07T15:57:18.214Z,100438.47
2022-10-07T15:59:45.655Z,100437.16
2022-10-07T16:02:17.328Z,100428.25
2022-10-07T16:04:48.157Z,100444.84
2022-10-07T16:07:16.193Z,100432.03
2022-10-07T16:09:43.668Z,100435.38
2022-10-07T16:12:11.279Z,100438.31
2022-10-07T16:14:38.860Z,100440.41
2022-10-07T16:17:06.158Z,100439.84
2022-10-07T16:19:33.728Z,100435.50
2022-10-07T16:22:01.144Z,100446.19
2022-10-07T16:24:34.009Z,100440.84
2022-10-07T16:27:02.371Z,100446.09
2022-10-07T16:29:48.411Z,100446.88
2022-10-07T16:32:15.790Z,100452.06
2022-10-07T16:34:44.383Z,100445.59
2022-10-07T16:37:12.461Z,100451.72
2022-10-07T16:39:39.649Z,100450.66
2022-10-07T16:42:08.573Z,100445.16
2022-10-07T16:44:35.849Z,100445.81
2022-10-07T16:47:03.258Z,100453.63
2022-10-07T16:49:30.590Z,100451.63
2022-10-07T16:51:58.403Z,100448.66
2022-10-07T16:54:28.524Z,100446.59
2022-10-07T16:56:56.349Z,100442.81
2022-10-07T16:59:25.524Z,100447.97
2022-10-07T17:01:56.843Z,100443.38
2022-10-07T17:04:25.319Z,100452.03
2022-10-07T17:06:53.774Z,100456.34
2022-10-07T17:09:24.365Z,100452.59
2022-10-07T17:11:51.957Z,100447.91
2022-10-07T17:14:21.630Z,100461.94
2022-10-07T17:16:56.946Z,100469.78
2022-10-07T17:19:28.205Z,100465.16
2022-10-07T17:21:59.164Z,100464.91
2022-10-07T17:24:26.881Z,100469.13
2022-10-07T17:26:55.207Z,100461.78
2022-10-07T17:29:25.951Z,100472.16
2022-10-07T17:31:53.969Z,100472.88
2022-10-07T17:34:22.496Z,100468.31
2022-10-07T17:36:50.644Z,100471.66
2022-10-07T17:39:21.474Z,100469.69
2022-10-07T17:41:49.220Z,100474.75
2022-10-07T17:44:16.741Z,100462.94
2022-10-07T17:46:44.260Z,100470.75
2022-10-07T17:49:15.240Z,100462.63
2022-10-07T17:51:43.954Z,100473.09
2022-10-07T17:54:14.031Z,100471.19
2022-10-07T17:56:45.625Z,100461.22
2022-10-07T17:59:14.302Z,100472.44
2022-10-07T18:01:42.148Z,100469.72
2022-10-07T18:04:23.724Z,100467.84
2022-10-07T18:06:52.136Z,100471.25
2022-10-07T18:09:22.138Z,100470.28
2022-10-07T18:12:08.075Z,100464.00
2022-10-07T18:14:54.541Z,100466.53
2022-10-07T18:17:24.327Z,100470.88
2022-10-07T18:19:52.176Z,100468.81
2022-10-07T18:22:20.026Z,100474.72
2022-10-07T18:24:47.300Z,100463.88
2022-10-07T18:27:14.798Z,100461.06
2022-10-07T18:29:42.009Z,100467.00
2022-10-07T18:32:09.382Z,100471.22
2022-10-07T18:34:36.993Z,100466.53
2022-10-07T18:37:04.332Z,100469.81
2022-10-07T18:39:33.038Z,100467.91
2022-10-07T18:42:00.288Z,100471.31
2022-10-07T18:44:27.785Z,100465.22
2022-10-07T18:46:55.179Z,100475.75
2022-10-07T18:49:23.517Z,100479.13
2022-10-07T18:51:51.237Z,100475.41
2022-10-07T18:54:21.769Z,100479.66
2022-10-07T18:56:51.005Z,100476.72
2022-10-07T18:59:20.195Z,100483.44
2022-10-07T19:01:50.858Z,100479.84
2022-10-07T19:04:19.895Z,100476.06
2022-10-07T19:06:48.505Z,100482.88
2022-10-07T19:09:20.718Z,100483.53
2022-10-07T19:11:49.235Z,100491.31
2022-10-07T19:14:16.868Z,100488.47
2022-10-07T19:16:49.118Z,100483.09
2022-10-07T19:19:23.901Z,100483.94
2022-10-07T19:21:55.264Z,100492.72
2022-10-07T19:24:45.893Z,100497.00
2022-10-07T19:27:13.184Z,100484.56
2022-10-07T19:29:40.752Z,100486.84
2022-10-07T19:32:08.923Z,100494.50
2022-10-07T19:34:36.507Z,100495.25
2022-10-07T19:37:04.117Z,100496.97
2022-10-07T19:39:31.751Z,100493.28
2022-10-07T19:41:59.514Z,100497.44
2022-10-07T19:44:27.236Z,100504.16
2022-10-07T19:46:54.449Z,100506.53
2022-10-07T19:49:22.302Z,100510.13
2022-10-07T19:51:49.841Z,100511.94
2022-10-07T19:54:17.676Z,100511.81
2022-10-07T19:56:45.346Z,100505.53
2022-10-07T19:59:15.058Z,100505.34
2022-10-07T20:01:47.363Z,100509.59
2022-10-07T20:04:20.714Z,100512.13
2022-10-07T20:06:48.348Z,100509.47
2022-10-07T20:09:19.327Z,100522.44
2022-10-07T20:11:47.055Z,100521.38
2022-10-07T20:14:16.039Z,100521.25
2022-10-07T20:16:44.068Z,100523.84
2022-10-07T20:19:18.650Z,100516.38
2022-10-07T20:21:47.946Z,100520.38
2022-10-07T20:24:16.844Z,100523.22
2022-10-07T20:26:45.250Z,100529.22
2022-10-07T20:29:15.916Z,100526.28
2022-10-07T20:31:44.324Z,100523.25
2022-10-07T20:34:19.966Z,100524.97
2022-10-07T20:36:47.265Z,100520.47
2022-10-07T20:39:37.552Z,100521.38
2022-10-07T20:42:21.202Z,100516.94
2022-10-07T20:44:50.161Z,100521.25
2022-10-07T20:47:19.222Z,100525.50
2022-10-07T20:49:48.447Z,100528.94
2022-10-07T20:52:24.353Z,100524.50
2022-10-07T20:54:53.415Z,100527.63
2022-10-07T20:57:28.523Z,100528.34
2022-10-07T20:59:56.109Z,100521.88
2022-10-07T21:02:25.590Z,100518.19
2022-10-07T21:04:53.545Z,100512.00
2022-10-07T21:07:21.447Z,100512.66
2022-10-07T21:09:48.760Z,100516.06
2022-10-07T21:12:18.274Z,100516.25
2022-10-07T21:14:48.337Z,100513.72
2022-10-07T21:17:16.672Z,100505.81
2022-10-07T21:19:43.982Z,100511.09
2022-10-07T21:22:11.363Z,100505.94
2022-10-07T21:24:38.822Z,100507.69
2022-10-07T21:27:07.764Z,100502.25
2022-10-07T21:29:40.094Z,100503.72
2022-10-07T21:32:10.572Z,100501.88
2022-10-07T21:34:38.580Z,100508.81
2022-10-07T21:37:05.920Z,100500.69
2022-10-07T21:39:33.904Z,100497.00
2022-10-07T21:42:02.048Z,100500.25
2022-10-07T21:44:29.452Z,100506.34
2022-10-07T21:46:59.856Z,100499.19
2022-10-07T21:49:27.201Z,100502.69
2022-10-07T21:51:54.872Z,100491.16
2022-10-07T21:54:22.174Z,100496.38
2022-10-07T21:56:50.088Z,100505.00
2022-10-07T21:59:17.376Z,100499.72
2022-10-07T22:01:44.625Z,100503.97
2022-10-07T22:04:17.754Z,100500.66
2022-10-07T22:07:04.658Z,100496.06
2022-10-07T22:09:33.271Z,100499.53
2022-10-07T22:12:00.937Z,100496.13
2022-10-07T22:14:28.431Z,100491.75
2022-10-07T22:16:55.912Z,100486.78
2022-10-07T22:19:23.198Z,100485.25
2022-10-07T22:21:50.589Z,100484.88
2022-10-07T22:24:17.957Z,100484.69
2022-10-07T22:26:48.002Z,100483.81
2022-10-07T22:29:18.682Z,100480.56
2022-10-07T22:31:47.352Z,100478.94
2022-10-07T22:34:33.979Z,100479.34
2022-10-07T22:37:02.002Z,100472.03
2022-10-07T22:39:30.253Z,100470.09
2022-10-07T22:41:58.604Z,100470.59
2022-10-07T22:44:27.907Z,100467.91
2022-10-07T22:46:57.101Z,100458.34
2022-10-07T22:49:29.509Z,100459.31
2022-10-07T22:51:59.691Z,100462.78
2022-10-07T22:54:28.199Z,100453.16
2022-10-07T22:56:55.652Z,100452.44
2022-10-07T22:59:23.161Z,100453.41
2022-10-07T23:01:50.605Z,100445.47
2022-10-07T23:04:20.176Z,100445.31
2022-10-07T23:06:48.279Z,100446.97
2022-10-07T23:09:15.605Z,100447.69
2022-10-07T23:11:42.777Z,100449.81
2022-10-07T23:14:10.285Z,100444.28
2022-10-07T23:16:37.646Z,100444.16
2022-10-07T23:19:04.908Z,100444.03
2022-10-07T23:21:35.033Z,100437.53
2022-10-07T23:24:07.307Z,100434.81
2022-10-07T23:26:36.992Z,100434.75
2022-10-07T23:29:05.761Z,100439.75
2022-10-07T23:31:33.636Z,100431.41
2022-10-07T23:34:03.021Z,100435.69
2022-10-07T23:36:31.730Z,100429.75
2022-10-07T23:39:00.597Z,100428.59
2022-10-07T23:41:30.745Z,100431.91
2022-10-07T23:44:04.471Z,100427.72
2022-10-07T23:46:35.020Z,100426.72
2022-10-07T23:49:04.374Z,100422.00
2022-10-07T23:51:33.616Z,100424.31
2022-10-07T23:54:03.609Z,100425.97
2022-10-07T23:56:32.681Z,100415.63
2022-10-07T23:59:01.754Z,100416.47
